Kensington, Ohio
Current Conditions -  °F | °C
As of 10:51 PM on Saturday 25 Oct 2014 (Local Time) from KCAK Reporting Station
Clear Clear  
Wind Chill: 58°   Ceiling: Unl
Heat Index: 58°   Visibility: 10mi
Dew Point: 32°   Wind: 16mph
Humidity: 37%   Direction: 300°WNW
Pressure: 29.81"   Gusts: NA
Location:  40.74°N, 80.96°W
Report Text: KCAK 260251Z 30014KT 10SM CLR 14/00 A2981 RMK AO2 SLP093 T01440000 53009
Loading
Personal Weather Stations






























Interactive Weather Map
Tropical Storm Tracking
New forecast layout! Learn more

10-Day Weather Forecast

Advertisements
Track Severe Weather on mobile